sensor_id;sensor_type;location;lat;lon;timestamp;P1;durP1;ratioP1;P2;durP2;ratioP2
47960;SDS011;33721;48.852;9.936;2022-09-09T00:06:33;5.40;;;1.48;;
47960;SDS011;33721;48.852;9.936;2022-09-09T00:11:42;4.13;;;1.77;;
47960;SDS011;33721;48.852;9.936;2022-09-09T00:17:21;5.00;;;1.77;;
47960;SDS011;33721;48.852;9.936;2022-09-09T00:22:27;3.08;;;1.83;;
47960;SDS011;33721;48.852;9.936;2022-09-09T00:24:58;5.90;;;1.85;;
47960;SDS011;33721;48.852;9.936;2022-09-09T00:27:45;6.72;;;1.70;;
47960;SDS011;33721;48.852;9.936;2022-09-09T00:32:53;7.15;;;2.03;;
47960;SDS011;33721;48.852;9.936;2022-09-09T00:35:29;3.53;;;1.90;;
47960;SDS011;33721;48.852;9.936;2022-09-09T00:38:09;8.15;;;2.08;;
47960;SDS011;33721;48.852;9.936;2022-09-09T00:40:37;5.80;;;2.15;;
47960;SDS011;33721;48.852;9.936;2022-09-09T00:46:14;5.55;;;2.00;;
47960;SDS011;33721;48.852;9.936;2022-09-09T00:52:22;3.47;;;1.98;;
47960;SDS011;33721;48.852;9.936;2022-09-09T00:57:34;4.03;;;2.22;;
47960;SDS011;33721;48.852;9.936;2022-09-09T01:11:25;3.85;;;1.60;;
47960;SDS011;33721;48.852;9.936;2022-09-09T01:13:58;2.90;;;1.50;;
47960;SDS011;33721;48.852;9.936;2022-09-09T01:16:35;4.38;;;1.88;;
47960;SDS011;33721;48.852;9.936;2022-09-09T01:19:01;6.93;;;2.13;;
47960;SDS011;33721;48.852;9.936;2022-09-09T01:27:10;2.60;;;1.50;;
47960;SDS011;33721;48.852;9.936;2022-09-09T01:29:36;3.63;;;1.48;;
47960;SDS011;33721;48.852;9.936;2022-09-09T01:32:35;6.97;;;1.75;;
47960;SDS011;33721;48.852;9.936;2022-09-09T01:35:11;2.65;;;1.45;;
47960;SDS011;33721;48.852;9.936;2022-09-09T01:37:54;4.38;;;1.70;;
47960;SDS011;33721;48.852;9.936;2022-09-09T01:40:19;4.72;;;1.45;;
47960;SDS011;33721;48.852;9.936;2022-09-09T01:42:45;4.70;;;1.65;;
47960;SDS011;33721;48.852;9.936;2022-09-09T01:45:11;3.22;;;1.75;;
47960;SDS011;33721;48.852;9.936;2022-09-09T01:47:36;4.28;;;1.85;;
47960;SDS011;33721;48.852;9.936;2022-09-09T01:50:02;6.18;;;1.55;;
47960;SDS011;33721;48.852;9.936;2022-09-09T01:52:29;7.20;;;1.70;;
47960;SDS011;33721;48.852;9.936;2022-09-09T01:54:58;3.50;;;1.70;;
47960;SDS011;33721;48.852;9.936;2022-09-09T01:57:25;4.25;;;1.60;;
47960;SDS011;33721;48.852;9.936;2022-09-09T02:05:55;3.58;;;1.60;;
47960;SDS011;33721;48.852;9.936;2022-09-09T02:08:50;4.13;;;2.33;;
47960;SDS011;33721;48.852;9.936;2022-09-09T02:11:21;4.43;;;2.00;;
47960;SDS011;33721;48.852;9.936;2022-09-09T02:13:49;4.93;;;1.85;;
47960;SDS011;33721;48.852;9.936;2022-09-09T02:16:26;6.07;;;2.20;;
47960;SDS011;33721;48.852;9.936;2022-09-09T02:19:04;3.67;;;1.75;;
47960;SDS011;33721;48.852;9.936;2022-09-09T02:21:38;3.92;;;1.42;;
47960;SDS011;33721;48.852;9.936;2022-09-09T02:24:06;3.25;;;1.55;;
47960;SDS011;33721;48.852;9.936;2022-09-09T02:26:35;6.82;;;1.70;;
47960;SDS011;33721;48.852;9.936;2022-09-09T02:29:06;7.20;;;2.15;;
47960;SDS011;33721;48.852;9.936;2022-09-09T02:31:36;6.95;;;2.10;;
47960;SDS011;33721;48.852;9.936;2022-09-09T02:34:03;7.35;;;1.73;;
47960;SDS011;33721;48.852;9.936;2022-09-09T02:36:32;12.13;;;2.08;;
47960;SDS011;33721;48.852;9.936;2022-09-09T02:39:00;3.17;;;1.80;;
47960;SDS011;33721;48.852;9.936;2022-09-09T02:41:28;3.10;;;1.92;;
47960;SDS011;33721;48.852;9.936;2022-09-09T02:46:32;8.27;;;2.10;;
47960;SDS011;33721;48.852;9.936;2022-09-09T02:50:08;5.47;;;1.90;;
47960;SDS011;33721;48.852;9.936;2022-09-09T02:52:26;3.22;;;1.92;;
47960;SDS011;33721;48.852;9.936;2022-09-09T02:54:54;7.07;;;2.10;;
47960;SDS011;33721;48.852;9.936;2022-09-09T02:57:28;3.63;;;1.67;;
47960;SDS011;33721;48.852;9.936;2022-09-09T02:59:57;8.48;;;2.00;;
47960;SDS011;33721;48.852;9.936;2022-09-09T03:02:24;4.35;;;1.65;;
47960;SDS011;33721;48.852;9.936;2022-09-09T03:04:50;5.78;;;2.10;;
47960;SDS011;33721;48.852;9.936;2022-09-09T03:07:17;7.28;;;2.13;;
47960;SDS011;33721;48.852;9.936;2022-09-09T03:09:43;9.25;;;1.80;;
47960;SDS011;33721;48.852;9.936;2022-09-09T03:12:09;9.13;;;2.13;;
47960;SDS011;33721;48.852;9.936;2022-09-09T03:14:36;6.57;;;2.25;;
47960;SDS011;33721;48.852;9.936;2022-09-09T03:17:03;4.10;;;2.13;;
47960;SDS011;33721;48.852;9.936;2022-09-09T03:19:30;7.10;;;2.47;;
47960;SDS011;33721;48.852;9.936;2022-09-09T03:21:56;7.43;;;1.77;;
47960;SDS011;33721;48.852;9.936;2022-09-09T03:24:23;4.35;;;2.00;;
47960;SDS011;33721;48.852;9.936;2022-09-09T03:26:49;3.30;;;1.83;;
47960;SDS011;33721;48.852;9.936;2022-09-09T03:29:15;4.88;;;2.00;;
47960;SDS011;33721;48.852;9.936;2022-09-09T03:31:42;5.95;;;1.70;;
47960;SDS011;33721;48.852;9.936;2022-09-09T03:34:08;3.90;;;1.58;;
47960;SDS011;33721;48.852;9.936;2022-09-09T03:36:33;3.78;;;2.13;;
47960;SDS011;33721;48.852;9.936;2022-09-09T03:38:59;5.55;;;1.95;;
47960;SDS011;33721;48.852;9.936;2022-09-09T03:41:26;6.35;;;1.92;;
47960;SDS011;33721;48.852;9.936;2022-09-09T03:43:52;6.45;;;1.90;;
47960;SDS011;33721;48.852;9.936;2022-09-09T03:46:18;2.75;;;1.88;;
47960;SDS011;33721;48.852;9.936;2022-09-09T03:48:49;7.60;;;1.88;;
47960;SDS011;33721;48.852;9.936;2022-09-09T03:51:15;5.65;;;1.77;;
47960;SDS011;33721;48.852;9.936;2022-09-09T03:53:41;3.67;;;2.00;;
47960;SDS011;33721;48.852;9.936;2022-09-09T03:56:07;5.35;;;2.00;;
47960;SDS011;33721;48.852;9.936;2022-09-09T03:58:34;5.53;;;1.90;;
47960;SDS011;33721;48.852;9.936;2022-09-09T04:01:14;4.55;;;2.30;;
47960;SDS011;33721;48.852;9.936;2022-09-09T04:03:42;5.68;;;1.80;;
47960;SDS011;33721;48.852;9.936;2022-09-09T04:06:08;4.28;;;1.90;;
47960;SDS011;33721;48.852;9.936;2022-09-09T04:08:36;4.32;;;2.25;;
47960;SDS011;33721;48.852;9.936;2022-09-09T04:11:03;4.22;;;2.45;;
47960;SDS011;33721;48.852;9.936;2022-09-09T04:13:32;7.10;;;2.90;;
47960;SDS011;33721;48.852;9.936;2022-09-09T04:16:02;4.28;;;2.42;;
47960;SDS011;33721;48.852;9.936;2022-09-09T04:18:28;5.28;;;1.95;;
47960;SDS011;33721;48.852;9.936;2022-09-09T04:20:54;10.63;;;2.60;;
47960;SDS011;33721;48.852;9.936;2022-09-09T04:23:22;4.78;;;2.55;;
47960;SDS011;33721;48.852;9.936;2022-09-09T04:25:50;7.28;;;3.30;;
47960;SDS011;33721;48.852;9.936;2022-09-09T04:28:18;4.53;;;2.30;;
47960;SDS011;33721;48.852;9.936;2022-09-09T04:30:46;4.53;;;2.10;;
47960;SDS011;33721;48.852;9.936;2022-09-09T04:33:12;8.90;;;2.35;;
47960;SDS011;33721;48.852;9.936;2022-09-09T04:35:39;4.35;;;2.17;;
47960;SDS011;33721;48.852;9.936;2022-09-09T04:38:09;4.68;;;1.92;;
47960;SDS011;33721;48.852;9.936;2022-09-09T04:40:35;4.95;;;1.77;;
47960;SDS011;33721;48.852;9.936;2022-09-09T04:43:01;4.10;;;1.60;;
47960;SDS011;33721;48.852;9.936;2022-09-09T04:45:30;8.27;;;1.95;;
47960;SDS011;33721;48.852;9.936;2022-09-09T04:47:56;3.63;;;1.58;;
47960;SDS011;33721;48.852;9.936;2022-09-09T04:50:22;4.75;;;1.60;;
47960;SDS011;33721;48.852;9.936;2022-09-09T04:52:48;4.82;;;2.00;;
47960;SDS011;33721;48.852;9.936;2022-09-09T04:55:14;6.20;;;1.70;;
47960;SDS011;33721;48.852;9.936;2022-09-09T04:57:39;9.18;;;2.35;;
47960;SDS011;33721;48.852;9.936;2022-09-09T05:00:05;2.53;;;1.67;;
47960;SDS011;33721;48.852;9.936;2022-09-09T05:02:32;5.07;;;1.83;;
47960;SDS011;33721;48.852;9.936;2022-09-09T05:04:58;5.75;;;1.80;;
47960;SDS011;33721;48.852;9.936;2022-09-09T05:07:24;3.58;;;1.52;;
47960;SDS011;33721;48.852;9.936;2022-09-09T05:09:52;6.65;;;2.67;;
47960;SDS011;33721;48.852;9.936;2022-09-09T05:12:18;4.68;;;2.10;;
47960;SDS011;33721;48.852;9.936;2022-09-09T05:14:44;8.25;;;2.15;;
47960;SDS011;33721;48.852;9.936;2022-09-09T05:17:10;5.57;;;1.67;;
47960;SDS011;33721;48.852;9.936;2022-09-09T05:19:35;3.85;;;1.70;;
47960;SDS011;33721;48.852;9.936;2022-09-09T05:22:01;8.02;;;1.90;;
47960;SDS011;33721;48.852;9.936;2022-09-09T05:24:27;5.88;;;2.08;;
47960;SDS011;33721;48.852;9.936;2022-09-09T05:26:54;4.20;;;2.20;;
47960;SDS011;33721;48.852;9.936;2022-09-09T05:29:23;6.70;;;2.00;;
47960;SDS011;33721;48.852;9.936;2022-09-09T05:31:48;2.28;;;1.80;;
47960;SDS011;33721;48.852;9.936;2022-09-09T05:34:14;4.63;;;1.75;;
47960;SDS011;33721;48.852;9.936;2022-09-09T05:36:39;4.72;;;2.20;;
47960;SDS011;33721;48.852;9.936;2022-09-09T05:39:05;6.15;;;2.50;;
47960;SDS011;33721;48.852;9.936;2022-09-09T05:41:30;5.50;;;2.65;;
47960;SDS011;33721;48.852;9.936;2022-09-09T05:43:56;4.75;;;2.00;;
47960;SDS011;33721;48.852;9.936;2022-09-09T05:46:24;13.38;;;2.22;;
47960;SDS011;33721;48.852;9.936;2022-09-09T05:48:50;6.30;;;2.33;;
47960;SDS011;33721;48.852;9.936;2022-09-09T05:51:21;5.85;;;2.10;;
47960;SDS011;33721;48.852;9.936;2022-09-09T05:53:49;5.70;;;1.88;;
47960;SDS011;33721;48.852;9.936;2022-09-09T05:56:20;7.00;;;2.50;;
47960;SDS011;33721;48.852;9.936;2022-09-09T05:58:48;4.43;;;1.73;;
47960;SDS011;33721;48.852;9.936;2022-09-09T06:01:16;7.07;;;2.20;;
47960;SDS011;33721;48.852;9.936;2022-09-09T06:03:50;4.18;;;1.98;;
47960;SDS011;33721;48.852;9.936;2022-09-09T06:06:18;4.47;;;1.92;;
47960;SDS011;33721;48.852;9.936;2022-09-09T06:11:19;9.18;;;1.90;;
47960;SDS011;33721;48.852;9.936;2022-09-09T06:13:47;4.20;;;2.03;;
47960;SDS011;33721;48.852;9.936;2022-09-09T06:16:17;5.00;;;2.00;;
47960;SDS011;33721;48.852;9.936;2022-09-09T06:18:43;6.32;;;2.00;;
47960;SDS011;33721;48.852;9.936;2022-09-09T06:21:12;5.95;;;1.90;;
47960;SDS011;33721;48.852;9.936;2022-09-09T06:23:43;5.95;;;2.08;;
47960;SDS011;33721;48.852;9.936;2022-09-09T06:28:46;6.15;;;2.40;;
47960;SDS011;33721;48.852;9.936;2022-09-09T06:31:13;4.57;;;1.85;;
47960;SDS011;33721;48.852;9.936;2022-09-09T06:33:42;6.97;;;1.90;;
47960;SDS011;33721;48.852;9.936;2022-09-09T06:36:15;3.28;;;2.10;;
47960;SDS011;33721;48.852;9.936;2022-09-09T06:38:51;6.50;;;2.00;;
47960;SDS011;33721;48.852;9.936;2022-09-09T06:41:17;6.82;;;1.75;;
47960;SDS011;33721;48.852;9.936;2022-09-09T06:43:44;5.75;;;1.73;;
47960;SDS011;33721;48.852;9.936;2022-09-09T06:46:17;3.47;;;1.80;;
47960;SDS011;33721;48.852;9.936;2022-09-09T06:48:45;3.45;;;1.52;;
47960;SDS011;33721;48.852;9.936;2022-09-09T06:51:12;5.25;;;2.10;;
47960;SDS011;33721;48.852;9.936;2022-09-09T06:53:40;7.22;;;1.70;;
47960;SDS011;33721;48.852;9.936;2022-09-09T06:58:41;7.22;;;1.63;;
47960;SDS011;33721;48.852;9.936;2022-09-09T07:01:08;3.67;;;1.67;;
47960;SDS011;33721;48.852;9.936;2022-09-09T07:03:34;7.57;;;2.10;;
47960;SDS011;33721;48.852;9.936;2022-09-09T07:06:00;5.32;;;1.75;;
47960;SDS011;33721;48.852;9.936;2022-09-09T07:08:26;6.00;;;1.52;;
47960;SDS011;33721;48.852;9.936;2022-09-09T07:10:53;5.60;;;2.20;;
47960;SDS011;33721;48.852;9.936;2022-09-09T07:13:25;5.63;;;2.47;;
47960;SDS011;33721;48.852;9.936;2022-09-09T07:15:52;7.85;;;1.85;;
47960;SDS011;33721;48.852;9.936;2022-09-09T07:18:18;3.70;;;1.67;;
47960;SDS011;33721;48.852;9.936;2022-09-09T07:20:52;3.80;;;1.58;;
47960;SDS011;33721;48.852;9.936;2022-09-09T07:23:19;7.43;;;1.40;;
47960;SDS011;33721;48.852;9.936;2022-09-09T07:25:45;3.70;;;1.77;;
47960;SDS011;33721;48.852;9.936;2022-09-09T07:28:12;3.95;;;1.58;;
47960;SDS011;33721;48.852;9.936;2022-09-09T07:30:38;2.38;;;1.40;;
47960;SDS011;33721;48.852;9.936;2022-09-09T07:33:05;5.85;;;1.58;;
47960;SDS011;33721;48.852;9.936;2022-09-09T07:35:31;4.80;;;1.70;;
47960;SDS011;33721;48.852;9.936;2022-09-09T07:37:56;2.83;;;1.60;;
47960;SDS011;33721;48.852;9.936;2022-09-09T07:40:23;5.35;;;1.48;;
47960;SDS011;33721;48.852;9.936;2022-09-09T07:42:49;8.70;;;1.67;;
47960;SDS011;33721;48.852;9.936;2022-09-09T07:45:15;4.32;;;1.40;;
47960;SDS011;33721;48.852;9.936;2022-09-09T07:47:40;4.03;;;1.48;;
47960;SDS011;33721;48.852;9.936;2022-09-09T07:50:07;5.15;;;1.38;;
47960;SDS011;33721;48.852;9.936;2022-09-09T07:52:34;4.43;;;1.40;;
47960;SDS011;33721;48.852;9.936;2022-09-09T07:55:00;4.43;;;1.58;;
47960;SDS011;33721;48.852;9.936;2022-09-09T07:57:27;2.35;;;1.30;;
47960;SDS011;33721;48.852;9.936;2022-09-09T07:59:55;6.35;;;1.60;;
47960;SDS011;33721;48.852;9.936;2022-09-09T08:02:21;4.32;;;1.27;;
47960;SDS011;33721;48.852;9.936;2022-09-09T08:04:53;4.65;;;1.42;;
47960;SDS011;33721;48.852;9.936;2022-09-09T08:07:18;5.07;;;1.70;;
47960;SDS011;33721;48.852;9.936;2022-09-09T08:09:46;5.40;;;1.30;;
47960;SDS011;33721;48.852;9.936;2022-09-09T08:12:12;5.93;;;1.42;;
47960;SDS011;33721;48.852;9.936;2022-09-09T08:14:38;2.22;;;1.20;;
47960;SDS011;33721;48.852;9.936;2022-09-09T08:17:05;3.25;;;1.02;;
47960;SDS011;33721;48.852;9.936;2022-09-09T08:19:30;4.57;;;1.27;;
47960;SDS011;33721;48.852;9.936;2022-09-09T08:21:59;3.97;;;1.40;;
47960;SDS011;33721;48.852;9.936;2022-09-09T08:24:26;8.63;;;1.95;;
47960;SDS011;33721;48.852;9.936;2022-09-09T08:26:52;2.88;;;1.10;;
47960;SDS011;33721;48.852;9.936;2022-09-09T08:29:18;2.50;;;1.52;;
47960;SDS011;33721;48.852;9.936;2022-09-09T08:31:45;3.60;;;1.38;;
47960;SDS011;33721;48.852;9.936;2022-09-09T08:34:12;7.07;;;1.30;;
47960;SDS011;33721;48.852;9.936;2022-09-09T08:36:42;4.53;;;1.33;;
47960;SDS011;33721;48.852;9.936;2022-09-09T08:39:10;6.05;;;1.50;;
47960;SDS011;33721;48.852;9.936;2022-09-09T08:50:42;8.52;;;1.40;;
47960;SDS011;33721;48.852;9.936;2022-09-09T08:56:06;6.68;;;1.55;;
47960;SDS011;33721;48.852;9.936;2022-09-09T08:58:39;5.78;;;1.63;;
47960;SDS011;33721;48.852;9.936;2022-09-09T09:06:55;2.72;;;1.20;;
47960;SDS011;33721;48.852;9.936;2022-09-09T09:09:52;6.13;;;1.63;;
47960;SDS011;33721;48.852;9.936;2022-09-09T09:12:30;4.28;;;1.88;;
47960;SDS011;33721;48.852;9.936;2022-09-09T09:15:01;6.25;;;1.58;;
47960;SDS011;33721;48.852;9.936;2022-09-09T09:17:27;5.15;;;1.45;;
47960;SDS011;33721;48.852;9.936;2022-09-09T09:19:58;7.72;;;1.77;;
47960;SDS011;33721;48.852;9.936;2022-09-09T09:22:43;5.72;;;1.70;;
47960;SDS011;33721;48.852;9.936;2022-09-09T09:25:15;6.35;;;1.30;;
47960;SDS011;33721;48.852;9.936;2022-09-09T09:27:58;2.45;;;1.23;;
47960;SDS011;33721;48.852;9.936;2022-09-09T09:30:52;8.52;;;2.22;;
47960;SDS011;33721;48.852;9.936;2022-09-09T09:33:35;4.57;;;1.38;;
47960;SDS011;33721;48.852;9.936;2022-09-09T09:36:06;4.55;;;1.40;;
47960;SDS011;33721;48.852;9.936;2022-09-09T09:38:33;5.65;;;1.40;;
47960;SDS011;33721;48.852;9.936;2022-09-09T09:41:01;7.85;;;1.70;;
47960;SDS011;33721;48.852;9.936;2022-09-09T09:43:28;2.47;;;1.05;;
47960;SDS011;33721;48.852;9.936;2022-09-09T09:46:04;8.27;;;1.42;;
47960;SDS011;33721;48.852;9.936;2022-09-09T09:48:42;4.03;;;1.30;;
47960;SDS011;33721;48.852;9.936;2022-09-09T09:51:09;6.30;;;1.30;;
47960;SDS011;33721;48.852;9.936;2022-09-09T09:53:37;2.38;;;1.20;;
47960;SDS011;33721;48.852;9.936;2022-09-09T09:56:05;6.90;;;1.42;;
47960;SDS011;33721;48.852;9.936;2022-09-09T09:58:33;4.05;;;1.30;;
47960;SDS011;33721;48.852;9.936;2022-09-09T10:01:03;5.28;;;1.50;;
47960;SDS011;33721;48.852;9.936;2022-09-09T10:03:30;4.47;;;1.17;;
47960;SDS011;33721;48.852;9.936;2022-09-09T10:05:58;3.22;;;1.40;;
47960;SDS011;33721;48.852;9.936;2022-09-09T10:08:24;5.22;;;1.33;;
47960;SDS011;33721;48.852;9.936;2022-09-09T10:19:34;10.45;;;1.40;;
47960;SDS011;33721;48.852;9.936;2022-09-09T10:32:38;5.30;;;1.58;;
47960;SDS011;33721;48.852;9.936;2022-09-09T10:35:27;7.97;;;1.55;;
47960;SDS011;33721;48.852;9.936;2022-09-09T10:38:27;9.35;;;1.88;;
47960;SDS011;33721;48.852;9.936;2022-09-09T10:53:52;7.28;;;1.60;;
47960;SDS011;33721;48.852;9.936;2022-09-09T10:56:40;3.72;;;1.80;;
47960;SDS011;33721;48.852;9.936;2022-09-09T10:59:13;7.27;;;1.83;;
47960;SDS011;33721;48.852;9.936;2022-09-09T11:01:52;8.65;;;1.40;;
47960;SDS011;33721;48.852;9.936;2022-09-09T11:04:38;4.05;;;1.58;;
47960;SDS011;33721;48.852;9.936;2022-09-09T11:07:08;7.22;;;1.52;;
47960;SDS011;33721;48.852;9.936;2022-09-09T11:09:39;7.07;;;1.67;;
47960;SDS011;33721;48.852;9.936;2022-09-09T11:12:10;6.88;;;1.77;;
47960;SDS011;33721;48.852;9.936;2022-09-09T11:14:43;7.15;;;1.67;;
47960;SDS011;33721;48.852;9.936;2022-09-09T11:17:21;4.60;;;1.45;;
47960;SDS011;33721;48.852;9.936;2022-09-09T11:19:53;4.50;;;1.30;;
47960;SDS011;33721;48.852;9.936;2022-09-09T11:22:30;6.20;;;1.85;;
47960;SDS011;33721;48.852;9.936;2022-09-09T11:25:41;4.25;;;1.35;;
47960;SDS011;33721;48.852;9.936;2022-09-09T11:31:14;6.22;;;1.50;;
47960;SDS011;33721;48.852;9.936;2022-09-09T11:34:09;3.35;;;1.30;;
47960;SDS011;33721;48.852;9.936;2022-09-09T11:36:45;6.93;;;1.20;;
47960;SDS011;33721;48.852;9.936;2022-09-09T11:44:39;4.20;;;1.00;;
47960;SDS011;33721;48.852;9.936;2022-09-09T11:49:55;5.43;;;0.90;;
47960;SDS011;33721;48.852;9.936;2022-09-09T11:55:47;4.13;;;0.73;;
47960;SDS011;33721;48.852;9.936;2022-09-09T11:58:25;3.85;;;0.80;;
47960;SDS011;33721;48.852;9.936;2022-09-09T12:00:54;6.75;;;1.10;;
47960;SDS011;33721;48.852;9.936;2022-09-09T12:06:29;1.92;;;0.77;;
47960;SDS011;33721;48.852;9.936;2022-09-09T12:08:58;3.58;;;1.00;;
47960;SDS011;33721;48.852;9.936;2022-09-09T12:11:49;2.60;;;0.75;;
47960;SDS011;33721;48.852;9.936;2022-09-09T12:14:19;5.20;;;0.77;;
47960;SDS011;33721;48.852;9.936;2022-09-09T12:17:16;4.88;;;1.00;;
47960;SDS011;33721;48.852;9.936;2022-09-09T12:19:44;2.65;;;0.73;;
47960;SDS011;33721;48.852;9.936;2022-09-09T12:25:18;7.32;;;1.52;;
47960;SDS011;33721;48.852;9.936;2022-09-09T12:28:08;2.80;;;0.55;;
47960;SDS011;33721;48.852;9.936;2022-09-09T12:30:59;3.47;;;0.70;;
47960;SDS011;33721;48.852;9.936;2022-09-09T12:33:34;5.53;;;0.95;;
47960;SDS011;33721;48.852;9.936;2022-09-09T12:36:01;5.30;;;0.82;;
47960;SDS011;33721;48.852;9.936;2022-09-09T12:38:32;2.90;;;0.55;;
47960;SDS011;33721;48.852;9.936;2022-09-09T12:43:27;6.00;;;0.88;;
47960;SDS011;33721;48.852;9.936;2022-09-09T12:45:54;2.33;;;0.73;;
47960;SDS011;33721;48.852;9.936;2022-09-09T12:48:38;2.08;;;0.70;;
47960;SDS011;33721;48.852;9.936;2022-09-09T12:51:24;5.55;;;0.90;;
47960;SDS011;33721;48.852;9.936;2022-09-09T12:53:53;5.78;;;0.80;;
47960;SDS011;33721;48.852;9.936;2022-09-09T12:56:21;4.20;;;0.80;;
47960;SDS011;33721;48.852;9.936;2022-09-09T12:58:51;8.20;;;1.00;;
47960;SDS011;33721;48.852;9.936;2022-09-09T13:01:23;6.18;;;0.90;;
47960;SDS011;33721;48.852;9.936;2022-09-09T13:03:54;3.40;;;0.82;;
47960;SDS011;33721;48.852;9.936;2022-09-09T13:06:24;5.40;;;0.80;;
47960;SDS011;33721;48.852;9.936;2022-09-09T13:08:52;5.45;;;0.95;;
47960;SDS011;33721;48.852;9.936;2022-09-09T13:14:13;9.38;;;1.00;;
47960;SDS011;33721;48.852;9.936;2022-09-09T13:16:53;3.35;;;0.90;;
47960;SDS011;33721;48.852;9.936;2022-09-09T13:19:29;2.67;;;0.75;;
47960;SDS011;33721;48.852;9.936;2022-09-09T13:22:13;3.45;;;0.98;;
47960;SDS011;33721;48.852;9.936;2022-09-09T13:24:45;3.55;;;0.60;;
47960;SDS011;33721;48.852;9.936;2022-09-09T13:27:26;2.85;;;1.10;;
47960;SDS011;33721;48.852;9.936;2022-09-09T13:30:54;2.65;;;0.90;;
47960;SDS011;33721;48.852;9.936;2022-09-09T13:33:21;2.70;;;0.77;;
47960;SDS011;33721;48.852;9.936;2022-09-09T13:35:55;5.82;;;0.75;;
47960;SDS011;33721;48.852;9.936;2022-09-09T13:38:22;3.28;;;1.10;;
47960;SDS011;33721;48.852;9.936;2022-09-09T13:41:00;2.42;;;0.73;;
47960;SDS011;33721;48.852;9.936;2022-09-09T13:43:30;2.08;;;0.80;;
47960;SDS011;33721;48.852;9.936;2022-09-09T13:45:59;1.60;;;0.52;;
47960;SDS011;33721;48.852;9.936;2022-09-09T13:48:26;3.40;;;0.73;;
47960;SDS011;33721;48.852;9.936;2022-09-09T13:50:56;2.30;;;0.70;;
47960;SDS011;33721;48.852;9.936;2022-09-09T13:53:24;6.93;;;0.70;;
47960;SDS011;33721;48.852;9.936;2022-09-09T13:55:50;2.05;;;0.60;;
47960;SDS011;33721;48.852;9.936;2022-09-09T13:58:17;4.28;;;0.57;;
47960;SDS011;33721;48.852;9.936;2022-09-09T14:00:44;4.22;;;0.63;;
47960;SDS011;33721;48.852;9.936;2022-09-09T14:03:11;1.70;;;0.57;;
47960;SDS011;33721;48.852;9.936;2022-09-09T14:05:37;3.42;;;0.80;;
47960;SDS011;33721;48.852;9.936;2022-09-09T14:08:03;3.28;;;0.77;;
47960;SDS011;33721;48.852;9.936;2022-09-09T14:10:30;2.97;;;0.85;;
47960;SDS011;33721;48.852;9.936;2022-09-09T14:12:56;3.85;;;0.75;;
47960;SDS011;33721;48.852;9.936;2022-09-09T14:15:22;1.65;;;0.50;;
47960;SDS011;33721;48.852;9.936;2022-09-09T14:17:48;3.38;;;0.82;;
47960;SDS011;33721;48.852;9.936;2022-09-09T14:20:14;3.45;;;0.70;;
47960;SDS011;33721;48.852;9.936;2022-09-09T14:22:42;5.93;;;0.50;;
47960;SDS011;33721;48.852;9.936;2022-09-09T14:25:09;4.10;;;0.50;;
47960;SDS011;33721;48.852;9.936;2022-09-09T14:27:34;2.95;;;0.68;;
47960;SDS011;33721;48.852;9.936;2022-09-09T14:30:00;2.47;;;0.68;;
47960;SDS011;33721;48.852;9.936;2022-09-09T14:32:26;4.43;;;0.73;;
47960;SDS011;33721;48.852;9.936;2022-09-09T14:34:52;3.38;;;0.73;;
47960;SDS011;33721;48.852;9.936;2022-09-09T14:37:17;3.15;;;0.60;;
47960;SDS011;33721;48.852;9.936;2022-09-09T14:39:43;1.48;;;0.65;;
47960;SDS011;33721;48.852;9.936;2022-09-09T14:42:12;3.35;;;0.60;;
47960;SDS011;33721;48.852;9.936;2022-09-09T14:44:38;1.95;;;0.73;;
47960;SDS011;33721;48.852;9.936;2022-09-09T14:47:04;2.60;;;0.63;;
47960;SDS011;33721;48.852;9.936;2022-09-09T14:49:30;4.15;;;0.60;;
47960;SDS011;33721;48.852;9.936;2022-09-09T14:51:56;5.32;;;0.90;;
47960;SDS011;33721;48.852;9.936;2022-09-09T14:54:22;7.03;;;0.70;;
47960;SDS011;33721;48.852;9.936;2022-09-09T14:56:48;1.98;;;0.63;;
47960;SDS011;33721;48.852;9.936;2022-09-09T14:59:13;3.17;;;0.50;;
47960;SDS011;33721;48.852;9.936;2022-09-09T15:01:39;3.95;;;0.60;;
47960;SDS011;33721;48.852;9.936;2022-09-09T15:04:06;3.95;;;0.60;;
47960;SDS011;33721;48.852;9.936;2022-09-09T15:06:32;6.28;;;0.70;;
47960;SDS011;33721;48.852;9.936;2022-09-09T15:09:01;1.35;;;0.52;;
47960;SDS011;33721;48.852;9.936;2022-09-09T15:11:28;2.22;;;0.50;;
47960;SDS011;33721;48.852;9.936;2022-09-09T15:13:57;6.30;;;0.57;;
47960;SDS011;33721;48.852;9.936;2022-09-09T15:16:24;2.35;;;0.60;;
47960;SDS011;33721;48.852;9.936;2022-09-09T15:18:53;4.72;;;0.68;;
47960;SDS011;33721;48.852;9.936;2022-09-09T15:21:20;3.90;;;0.65;;
47960;SDS011;33721;48.852;9.936;2022-09-09T15:23:47;3.90;;;0.52;;
47960;SDS011;33721;48.852;9.936;2022-09-09T15:26:13;4.28;;;0.50;;
47960;SDS011;33721;48.852;9.936;2022-09-09T15:28:40;3.75;;;0.52;;
47960;SDS011;33721;48.852;9.936;2022-09-09T15:31:07;2.58;;;0.68;;
47960;SDS011;33721;48.852;9.936;2022-09-09T15:33:48;3.75;;;0.63;;
47960;SDS011;33721;48.852;9.936;2022-09-09T15:36:25;3.00;;;0.93;;
47960;SDS011;33721;48.852;9.936;2022-09-09T15:38:52;2.83;;;0.50;;
47960;SDS011;33721;48.852;9.936;2022-09-09T15:41:18;2.58;;;0.40;;
47960;SDS011;33721;48.852;9.936;2022-09-09T15:43:46;2.22;;;0.50;;
47960;SDS011;33721;48.852;9.936;2022-09-09T15:48:42;2.00;;;0.40;;
47960;SDS011;33721;48.852;9.936;2022-09-09T15:51:11;8.40;;;0.80;;
47960;SDS011;33721;48.852;9.936;2022-09-09T15:53:38;5.53;;;0.70;;
47960;SDS011;33721;48.852;9.936;2022-09-09T15:56:07;3.45;;;0.52;;
47960;SDS011;33721;48.852;9.936;2022-09-09T15:58:34;3.55;;;0.88;;
47960;SDS011;33721;48.852;9.936;2022-09-09T16:01:07;4.10;;;0.60;;
47960;SDS011;33721;48.852;9.936;2022-09-09T16:03:34;3.50;;;0.60;;
47960;SDS011;33721;48.852;9.936;2022-09-09T16:06:01;2.05;;;0.40;;
47960;SDS011;33721;48.852;9.936;2022-09-09T16:08:46;5.15;;;0.40;;
47960;SDS011;33721;48.852;9.936;2022-09-09T16:11:18;1.42;;;0.40;;
47960;SDS011;33721;48.852;9.936;2022-09-09T16:13:47;2.65;;;0.70;;
47960;SDS011;33721;48.852;9.936;2022-09-09T16:16:15;4.63;;;0.60;;
47960;SDS011;33721;48.852;9.936;2022-09-09T16:18:43;4.05;;;0.50;;
47960;SDS011;33721;48.852;9.936;2022-09-09T16:21:16;0.90;;;0.30;;
47960;SDS011;33721;48.852;9.936;2022-09-09T16:23:42;7.18;;;0.60;;
47960;SDS011;33721;48.852;9.936;2022-09-09T16:26:12;1.73;;;0.50;;
47960;SDS011;33721;48.852;9.936;2022-09-09T16:28:40;2.90;;;0.50;;
47960;SDS011;33721;48.852;9.936;2022-09-09T16:31:24;2.70;;;0.50;;
47960;SDS011;33721;48.852;9.936;2022-09-09T16:33:50;1.80;;;0.30;;
47960;SDS011;33721;48.852;9.936;2022-09-09T16:36:17;1.38;;;0.40;;
47960;SDS011;33721;48.852;9.936;2022-09-09T16:38:47;3.25;;;0.50;;
47960;SDS011;33721;48.852;9.936;2022-09-09T16:41:16;4.82;;;0.60;;
47960;SDS011;33721;48.852;9.936;2022-09-09T16:43:43;6.95;;;0.40;;
47960;SDS011;33721;48.852;9.936;2022-09-09T16:46:16;3.92;;;0.35;;
47960;SDS011;33721;48.852;9.936;2022-09-09T16:48:43;2.13;;;0.45;;
47960;SDS011;33721;48.852;9.936;2022-09-09T16:51:15;5.28;;;0.60;;
47960;SDS011;33721;48.852;9.936;2022-09-09T16:53:43;7.40;;;0.43;;
47960;SDS011;33721;48.852;9.936;2022-09-09T16:56:19;2.67;;;0.40;;
47960;SDS011;33721;48.852;9.936;2022-09-09T16:58:53;1.58;;;0.60;;
47960;SDS011;33721;48.852;9.936;2022-09-09T17:01:24;1.83;;;0.55;;
47960;SDS011;33721;48.852;9.936;2022-09-09T17:03:54;2.47;;;0.60;;
47960;SDS011;33721;48.852;9.936;2022-09-09T17:06:21;2.20;;;0.43;;
47960;SDS011;33721;48.852;9.936;2022-09-09T17:08:48;4.70;;;0.70;;
47960;SDS011;33721;48.852;9.936;2022-09-09T17:11:19;2.63;;;0.50;;
47960;SDS011;33721;48.852;9.936;2022-09-09T17:13:46;3.67;;;0.50;;
47960;SDS011;33721;48.852;9.936;2022-09-09T17:16:12;1.67;;;0.65;;
47960;SDS011;33721;48.852;9.936;2022-09-09T17:18:40;4.25;;;0.60;;
47960;SDS011;33721;48.852;9.936;2022-09-09T17:21:07;3.00;;;0.55;;
47960;SDS011;33721;48.852;9.936;2022-09-09T17:23:35;3.22;;;0.70;;